Time,TemperatureF,DewpointF,PressureIn,WindDirection,WindDirectionDegrees,WindSpeedMPH,WindSpeedGustMPH,Humidity,HourlyPrecipIn,Conditions,Clouds,dailyrainin,SoftwareType,DateUTC
2013-02-20 00:01:00,35.0,23.0,29.59,SW,223,9.0,17.0,61,0.00,,,0.00,,2013-02-20 07:01:00,
2013-02-20 00:11:00,35.0,23.0,29.59,SW,223,9.0,17.0,61,0.00,,,0.00,,2013-02-20 07:11:00,
2013-02-20 00:21:00,35.0,23.0,29.58,SW,234,9.0,18.0,62,0.00,,,0.00,,2013-02-20 07:21:00,
2013-02-20 00:31:00,35.0,24.0,29.58,WSW,240,11.0,24.0,63,0.00,,,0.00,,2013-02-20 07:31:00,
2013-02-20 00:41:00,35.0,24.0,29.58,WSW,240,11.0,24.0,63,0.00,,,0.00,,2013-02-20 07:41:00,
2013-02-20 00:52:00,34.0,23.0,29.58,South,190,14.0,29.0,63,0.00,,,0.00,,2013-02-20 07:52:00,
2013-02-20 01:01:00,33.0,23.0,29.58,SW,218,11.0,21.0,65,0.00,,,0.00,,2013-02-20 08:01:00,
2013-02-20 01:11:00,33.0,23.0,29.58,SW,218,11.0,21.0,65,0.00,,,0.00,,2013-02-20 08:11:00,
2013-02-20 01:21:00,33.0,23.0,29.58,SSW,199,14.0,24.0,65,0.00,,,0.00,,2013-02-20 08:21:00,
2013-02-20 01:31:00,33.0,22.0,29.58,SW,234,10.0,20.0,64,0.00,,,0.00,,2013-02-20 08:31:00,
2013-02-20 01:41:00,33.0,22.0,29.58,SW,234,10.0,20.0,64,0.00,,,0.00,,2013-02-20 08:41:00,
2013-02-20 01:52:00,33.0,22.0,29.58,SW,226,11.0,19.0,63,0.00,,,0.00,,2013-02-20 08:52:00,
2013-02-20 02:01:00,33.0,22.0,29.58,South,173,8.0,20.0,64,0.00,,,0.00,,2013-02-20 09:01:00,
2013-02-20 02:11:00,33.0,22.0,29.58,South,173,8.0,20.0,64,0.00,,,0.00,,2013-02-20 09:11:00,
2013-02-20 02:21:00,32.0,23.0,29.58,South,179,6.0,17.0,70,0.00,,,0.00,,2013-02-20 09:21:00,
2013-02-20 02:31:00,30.0,25.0,29.57,South,174,7.0,15.0,80,0.00,,,0.00,,2013-02-20 09:31:00,
2013-02-20 02:41:00,30.0,25.0,29.57,South,174,7.0,15.0,80,0.00,,,0.00,,2013-02-20 09:41:00,
2013-02-20 02:51:00,30.0,26.0,29.60,SSW,203,7.0,15.0,84,0.00,,,0.00,,2013-02-20 09:51:00,
2013-02-20 03:01:00,29.0,26.0,29.59,SW,222,3.0,12.0,89,0.00,,,0.00,,2013-02-20 10:01:00,
2013-02-20 03:11:00,29.0,26.0,29.59,SW,222,3.0,12.0,89,0.00,,,0.00,,2013-02-20 10:11:00,
2013-02-20 03:21:00,28.0,25.0,29.58,SSW,207,5.0,10.0,90,0.00,,,0.00,,2013-02-20 10:21:00,
2013-02-20 03:31:00,28.0,26.0,29.57,South,188,5.0,9.0,91,0.00,,,0.00,,2013-02-20 10:31:00,
2013-02-20 03:41:00,28.0,26.0,29.57,South,188,5.0,9.0,91,0.00,,,0.00,,2013-02-20 10:41:00,
2013-02-20 03:51:00,29.0,27.0,29.57,SW,215,8.0,15.0,91,0.00,,,0.00,,2013-02-20 10:51:00,
2013-02-20 04:01:00,29.0,26.0,29.57,SW,221,11.0,19.0,90,0.00,,,0.00,,2013-02-20 11:01:00,
2013-02-20 04:11:00,29.0,26.0,29.56,SW,223,10.0,16.0,89,0.00,,,0.00,,2013-02-20 11:11:00,
2013-02-20 04:21:00,29.0,26.0,29.56,SW,223,10.0,16.0,89,0.00,,,0.00,,2013-02-20 11:21:00,
2013-02-20 04:31:00,29.0,26.0,29.56,South,189,8.0,17.0,89,0.00,,,0.00,,2013-02-20 11:31:00,
2013-02-20 04:41:00,29.0,26.0,29.56,South,189,8.0,17.0,89,0.00,,,0.00,,2013-02-20 11:41:00,
2013-02-20 04:52:00,29.0,26.0,29.55,WSW,242,8.0,19.0,88,0.00,,,0.00,,2013-02-20 11:52:00,
2013-02-20 05:01:00,29.0,25.0,29.55,SSW,211,7.0,21.0,86,0.00,,,0.00,,2013-02-20 12:01:00,
2013-02-20 05:11:00,29.0,25.0,29.55,SSW,211,7.0,21.0,86,0.00,,,0.00,,2013-02-20 12:11:00,
2013-02-20 05:21:00,29.0,25.0,29.54,WSW,243,11.0,21.0,84,0.00,,,0.00,,2013-02-20 12:21:00,
2013-02-20 05:31:00,29.0,25.0,29.52,WSW,240,11.0,21.0,84,0.00,,,0.00,,2013-02-20 12:31:00,
2013-02-20 05:41:00,29.0,25.0,29.52,WSW,240,11.0,21.0,84,0.00,,,0.00,,2013-02-20 12:41:00,
2013-02-20 05:52:00,28.0,24.0,29.51,SSW,211,11.0,19.0,84,0.00,,,0.00,,2013-02-20 12:52:00,
2013-02-20 06:01:00,28.0,24.0,29.52,WSW,238,10.0,20.0,83,0.00,,,0.00,,2013-02-20 13:01:00,
2013-02-20 06:11:00,28.0,24.0,29.52,WSW,238,10.0,20.0,83,0.00,,,0.00,,2013-02-20 13:11:00,
2013-02-20 06:22:00,28.0,23.0,29.52,SW,215,10.0,15.0,82,0.00,,,0.00,,2013-02-20 13:22:00,
2013-02-20 06:31:00,27.0,22.0,29.50,SSW,208,8.0,16.0,81,0.00,,,0.00,,2013-02-20 13:31:00,
2013-02-20 06:42:00,27.0,22.0,29.50,SSW,208,8.0,16.0,81,0.00,,,0.00,,2013-02-20 13:42:00,
2013-02-20 06:51:00,27.0,22.0,29.51,SW,230,4.0,15.0,80,0.00,,,0.00,,2013-02-20 13:51:00,
2013-02-20 07:01:00,27.0,22.0,29.52,NNE,24,3.0,6.0,80,0.00,,,0.00,,2013-02-20 14:01:00,
2013-02-20 07:11:00,27.0,22.0,29.52,NNE,24,3.0,6.0,80,0.00,,,0.00,,2013-02-20 14:11:00,
2013-02-20 07:21:00,27.0,22.0,29.53,ESE,111,4.0,8.0,81,0.00,,,0.00,,2013-02-20 14:21:00,
2013-02-20 07:32:00,28.0,23.0,29.54,ESE,105,0.0,5.0,80,0.00,,,0.00,,2013-02-20 14:32:00,
2013-02-20 07:42:00,28.0,23.0,29.55,SE,135,0.0,6.0,80,0.00,,,0.00,,2013-02-20 14:42:00,
2013-02-20 07:52:00,28.0,23.0,29.55,SE,135,0.0,6.0,80,0.00,,,0.00,,2013-02-20 14:52:00,
2013-02-20 08:01:00,28.0,23.0,29.55,South,180,3.0,5.0,80,0.00,,,0.00,,2013-02-20 15:01:00,
2013-02-20 08:11:00,28.0,23.0,29.55,ESE,114,2.0,7.0,82,0.00,,,0.00,,2013-02-20 15:11:00,
2013-02-20 08:22:00,28.0,23.0,29.55,ESE,114,2.0,7.0,82,0.00,,,0.00,,2013-02-20 15:22:00,
2013-02-20 08:31:00,27.0,22.0,29.56,South,174,5.0,10.0,82,0.00,,,0.00,,2013-02-20 15:31:00,
2013-02-20 08:41:00,27.0,23.0,29.56,South,187,2.0,10.0,86,0.00,,,0.00,,2013-02-20 15:41:00,
2013-02-20 08:52:00,27.0,23.0,29.56,South,187,2.0,10.0,86,0.00,,,0.00,,2013-02-20 15:52:00,
2013-02-20 09:01:00,27.0,24.0,29.57,East,96,1.0,5.0,87,0.00,,,0.00,,2013-02-20 16:01:00,
2013-02-20 09:11:00,27.0,24.0,29.57,East,88,0.0,2.0,88,0.00,,,0.00,,2013-02-20 16:11:00,
2013-02-20 09:21:00,27.0,24.0,29.57,East,88,0.0,2.0,88,0.00,,,0.00,,2013-02-20 16:21:00,
2013-02-20 09:32:00,28.0,25.0,29.57,ENE,72,0.0,3.0,88,0.00,,,0.00,,2013-02-20 16:32:00,
2013-02-20 09:41:00,29.0,25.0,29.57,ENE,78,0.0,2.0,86,0.00,,,0.00,,2013-02-20 16:41:00,
2013-02-20 09:52:00,29.0,25.0,29.57,ENE,78,0.0,2.0,86,0.00,,,0.00,,2013-02-20 16:52:00,
2013-02-20 10:01:00,29.0,25.0,29.56,SSW,194,1.0,3.0,85,0.00,,,0.00,,2013-02-20 17:01:00,
2013-02-20 10:11:00,28.0,24.0,29.57,ESE,105,2.0,7.0,86,0.00,,,0.00,,2013-02-20 17:11:00,
2013-02-20 10:21:00,28.0,24.0,29.57,ESE,105,2.0,7.0,86,0.00,,,0.00,,2013-02-20 17:21:00,
2013-02-20 10:32:00,28.0,25.0,29.55,South,182,5.0,9.0,88,0.01,,,0.01,,2013-02-20 17:32:00,
2013-02-20 10:41:00,27.0,24.0,29.56,SW,219,8.0,16.0,88,0.01,,,0.01,,2013-02-20 17:41:00,
2013-02-20 10:52:00,27.0,24.0,29.56,SW,219,8.0,16.0,88,0.01,,,0.01,,2013-02-20 17:52:00,
2013-02-20 11:02:00,26.0,23.0,29.56,SSW,199,2.0,10.0,88,0.01,,,0.01,,2013-02-20 18:02:00,
2013-02-20 11:11:00,26.0,23.0,29.56,SSW,199,2.0,10.0,88,0.01,,,0.01,,2013-02-20 18:11:00,
2013-02-20 11:21:00,26.0,23.0,29.56,SW,217,7.0,9.0,88,0.01,,,0.01,,2013-02-20 18:21:00,
2013-02-20 11:31:00,26.0,23.0,29.57,SW,226,10.0,13.0,87,0.00,,,0.01,,2013-02-20 18:31:00,
2013-02-20 11:41:00,26.0,23.0,29.57,SW,226,10.0,13.0,87,0.00,,,0.01,,2013-02-20 18:41:00,
2013-02-20 11:52:00,26.0,23.0,29.58,West,272,5.0,9.0,87,0.00,,,0.01,,2013-02-20 18:52:00,
2013-02-20 12:01:00,26.0,23.0,29.58,SSW,209,2.0,6.0,87,0.00,,,0.01,,2013-02-20 19:01:00,
2013-02-20 12:11:00,26.0,23.0,29.58,SSW,209,2.0,6.0,87,0.00,,,0.01,,2013-02-20 19:11:00,
2013-02-20 12:21:00,26.0,22.0,29.58,SSW,192,4.0,7.0,86,0.01,,,0.02,,2013-02-20 19:21:00,
2013-02-20 12:31:00,26.0,22.0,29.59,SW,219,6.0,10.0,86,0.01,,,0.02,,2013-02-20 19:31:00,
2013-02-20 12:41:00,26.0,22.0,29.59,SW,219,6.0,10.0,86,0.01,,,0.02,,2013-02-20 19:41:00,
2013-02-20 12:52:00,27.0,23.0,29.56,WSW,248,7.0,13.0,85,0.01,,,0.02,,2013-02-20 19:52:00,
2013-02-20 13:01:00,26.0,23.0,29.57,WSW,238,6.0,15.0,87,0.01,,,0.02,,2013-02-20 20:01:00,
2013-02-20 13:11:00,25.0,22.0,29.56,WSW,254,3.0,9.0,89,0.00,,,0.02,,2013-02-20 20:11:00,
2013-02-20 13:21:00,25.0,22.0,29.56,WSW,254,3.0,9.0,89,0.00,,,0.02,,2013-02-20 20:21:00,
2013-02-20 13:31:00,26.0,23.0,29.57,SW,232,6.0,9.0,90,0.00,,,0.02,,2013-02-20 20:31:00,
2013-02-20 13:41:00,25.0,22.0,29.57,SW,226,3.0,8.0,89,0.00,,,0.02,,2013-02-20 20:41:00,
2013-02-20 13:51:00,25.0,22.0,29.57,SW,226,3.0,8.0,89,0.00,,,0.02,,2013-02-20 20:51:00,
2013-02-20 14:01:00,26.0,22.0,29.57,NW,305,3.0,12.0,86,0.00,,,0.02,,2013-02-20 21:01:00,
2013-02-20 14:11:00,26.0,22.0,29.57,WSW,248,7.0,13.0,85,0.01,,,0.03,,2013-02-20 21:11:00,
2013-02-20 14:21:00,26.0,22.0,29.57,WSW,248,7.0,13.0,85,0.01,,,0.03,,2013-02-20 21:21:00,
2013-02-20 14:31:00,27.0,23.0,29.59,WSW,252,5.0,12.0,86,0.02,,,0.04,,2013-02-20 21:31:00,
2013-02-20 14:41:00,27.0,23.0,29.59,WSW,252,5.0,12.0,86,0.02,,,0.04,,2013-02-20 21:41:00,
2013-02-20 14:52:00,27.0,22.0,29.59,SSW,211,7.0,18.0,81,0.02,,,0.04,,2013-02-20 21:52:00,
2013-02-20 15:01:00,28.0,21.0,29.60,SW,223,9.0,19.0,75,0.03,,,0.05,,2013-02-20 22:01:00,
2013-02-20 15:11:00,27.0,20.0,29.61,SW,229,3.0,14.0,75,0.02,,,0.05,,2013-02-20 22:11:00,
2013-02-20 15:21:00,27.0,20.0,29.61,SW,229,3.0,14.0,75,0.02,,,0.05,,2013-02-20 22:21:00,
2013-02-20 15:31:00,27.0,19.0,29.60,SSW,206,10.0,15.0,72,0.01,,,0.05,,2013-02-20 22:31:00,
2013-02-20 15:41:00,27.0,19.0,29.60,SSW,206,10.0,15.0,72,0.01,,,0.05,,2013-02-20 22:41:00,
2013-02-20 15:51:00,27.0,19.0,29.60,WSW,237,7.0,13.0,71,0.01,,,0.05,,2013-02-20 22:51:00,
2013-02-20 16:01:00,28.0,20.0,29.61,SW,226,5.0,13.0,72,0.00,,,0.05,,2013-02-20 23:01:00,
2013-02-20 16:11:00,29.0,20.0,29.62,NW,313,3.0,10.0,70,0.00,,,0.05,,2013-02-20 23:11:00,
2013-02-20 16:21:00,29.0,20.0,29.62,NW,313,3.0,10.0,70,0.00,,,0.05,,2013-02-20 23:21:00,
2013-02-20 16:31:00,28.0,20.0,29.62,WSW,253,4.0,13.0,71,0.00,,,0.05,,2013-02-20 23:31:00,
2013-02-20 16:42:00,28.0,20.0,29.62,WSW,253,4.0,13.0,71,0.00,,,0.05,,2013-02-20 23:42:00,
2013-02-20 16:52:00,28.0,20.0,29.63,West,275,5.0,8.0,73,0.00,,,0.05,,2013-02-20 23:52:00,
2013-02-20 17:02:00,28.0,20.0,29.64,WSW,250,5.0,9.0,71,0.00,,,0.05,,2013-02-21 00:02:00,
2013-02-20 17:11:00,28.0,20.0,29.64,WSW,250,5.0,9.0,71,0.00,,,0.05,,2013-02-21 00:11:00,
2013-02-20 17:21:00,27.0,20.0,29.65,WNW,288,4.0,8.0,76,0.00,,,0.05,,2013-02-21 00:21:00,
2013-02-20 17:31:00,26.0,19.0,29.65,WSW,249,6.0,11.0,75,0.01,,,0.06,,2013-02-21 00:31:00,
2013-02-20 17:41:00,26.0,20.0,29.66,West,259,6.0,8.0,77,0.01,,,0.06,,2013-02-21 00:41:00,
2013-02-20 17:52:00,26.0,20.0,29.66,West,259,6.0,8.0,77,0.01,,,0.06,,2013-02-21 00:52:00,
2013-02-20 18:01:00,26.0,19.0,29.64,WSW,254,5.0,9.0,76,0.01,,,0.06,,2013-02-21 01:01:00,
2013-02-20 18:11:00,26.0,19.0,29.64,WSW,254,5.0,9.0,76,0.01,,,0.06,,2013-02-21 01:11:00,
2013-02-20 18:21:00,26.0,20.0,29.65,West,261,2.0,7.0,77,0.01,,,0.06,,2013-02-21 01:21:00,
2013-02-20 18:31:00,25.0,19.0,29.65,WSW,253,3.0,10.0,76,0.00,,,0.06,,2013-02-21 01:31:00,
2013-02-20 18:41:00,25.0,19.0,29.65,WSW,253,3.0,10.0,76,0.00,,,0.06,,2013-02-21 01:41:00,
2013-02-20 18:52:00,25.0,19.0,29.67,WSW,250,3.0,8.0,79,0.00,,,0.06,,2013-02-21 01:52:00,
2013-02-20 19:01:00,25.0,20.0,29.67,WSW,246,3.0,9.0,82,0.00,,,0.06,,2013-02-21 02:01:00,
2013-02-20 19:11:00,25.0,20.0,29.67,WSW,246,3.0,9.0,82,0.00,,,0.06,,2013-02-21 02:11:00,
2013-02-20 19:21:00,25.0,21.0,29.68,West,281,4.0,9.0,85,0.00,,,0.06,,2013-02-21 02:21:00,
2013-02-20 19:32:00,25.0,21.0,29.69,WSW,252,6.0,8.0,86,0.00,,,0.06,,2013-02-21 02:32:00,
2013-02-20 19:41:00,25.0,21.0,29.69,WSW,252,6.0,8.0,86,0.00,,,0.06,,2013-02-21 02:41:00,
2013-02-20 19:51:00,25.0,21.0,29.69,WSW,252,6.0,8.0,86,0.00,,,0.06,,2013-02-21 02:51:00,
2013-02-20 20:01:00,24.0,20.0,29.72,SSW,194,2.0,6.0,85,0.00,,,0.06,,2013-02-21 03:01:00,
2013-02-20 20:11:00,24.0,20.0,29.72,SSW,194,2.0,6.0,85,0.00,,,0.06,,2013-02-21 03:11:00,
2013-02-20 20:21:00,25.0,21.0,29.72,West,265,2.0,4.0,84,0.00,,,0.06,,2013-02-21 03:21:00,
2013-02-20 20:31:00,25.0,21.0,29.74,West,264,0.0,2.0,83,0.00,,,0.06,,2013-02-21 03:31:00,
2013-02-20 20:41:00,25.0,21.0,29.74,West,264,0.0,2.0,83,0.00,,,0.06,,2013-02-21 03:41:00,
2013-02-20 20:51:00,25.0,21.0,29.72,West,261,2.0,6.0,83,0.00,,,0.06,,2013-02-21 03:51:00,
2013-02-20 21:01:00,25.0,20.0,29.72,WSW,240,2.0,5.0,82,0.00,,,0.06,,2013-02-21 04:01:00,
2013-02-20 21:11:00,25.0,20.0,29.72,WSW,240,2.0,5.0,82,0.00,,,0.06,,2013-02-21 04:11:00,
2013-02-20 21:21:00,25.0,20.0,29.72,NW,305,0.0,4.0,82,0.00,,,0.06,,2013-02-21 04:21:00,
2013-02-20 21:31:00,25.0,20.0,29.73,West,275,1.0,3.0,82,0.00,,,0.06,,2013-02-21 04:31:00,
2013-02-20 21:41:00,25.0,20.0,29.73,West,275,1.0,3.0,82,0.00,,,0.06,,2013-02-21 04:41:00,
2013-02-20 21:52:00,24.0,20.0,29.75,WNW,282,5.0,9.0,83,0.00,,,0.06,,2013-02-21 04:52:00,
2013-02-20 22:02:00,24.0,20.0,29.76,NW,323,2.0,8.0,83,0.00,,,0.06,,2013-02-21 05:02:00,
2013-02-20 22:11:00,24.0,20.0,29.76,NW,323,2.0,8.0,83,0.00,,,0.06,,2013-02-21 05:11:00,
2013-02-20 22:21:00,24.0,20.0,29.77,West,269,5.0,9.0,83,0.00,,,0.06,,2013-02-21 05:21:00,
2013-02-20 22:32:00,25.0,20.0,29.77,SW,232,2.0,6.0,81,0.00,,,0.06,,2013-02-21 05:32:00,
2013-02-20 22:42:00,25.0,20.0,29.77,SW,232,2.0,6.0,81,0.00,,,0.06,,2013-02-21 05:42:00,
2013-02-20 22:55:00,25.0,20.0,29.77,NW,317,1.0,4.0,82,0.00,,,0.06,,2013-02-21 05:55:00,
2013-02-20 23:01:00,25.0,21.0,29.78,West,269,5.0,13.0,83,0.00,,,0.06,,2013-02-21 06:01:00,
2013-02-20 23:10:00,25.0,20.0,29.78,WSW,258,1.0,11.0,82,0.00,,,0.06,,2013-02-21 06:10:00,
2013-02-20 23:21:00,25.0,20.0,29.78,WSW,258,1.0,11.0,82,0.00,,,0.06,,2013-02-21 06:21:00,
2013-02-20 23:31:00,25.0,20.0,29.79,West,279,1.0,9.0,82,0.00,,,0.06,,2013-02-21 06:31:00,
2013-02-20 23:41:00,25.0,20.0,29.80,NW,321,1.0,3.0,82,0.00,,,0.06,,2013-02-21 06:41:00,
2013-02-20 23:51:00,25.0,20.0,29.80,NW,321,1.0,3.0,82,0.00,,,0.06,,2013-02-21 06:51:00,